Harrington, South Dakota
Current Conditions -  °F | °C
As of 2:52 PM on Friday 24 Oct 2014 (Local Time) from KIEN Reporting Station
Clear Clear  
Wind Chill: 77°   Ceiling: Unl
Heat Index: 77°   Visibility: 10mi
Dew Point: 34°   Wind: 0mph
Humidity: 21%   Direction: NA
Pressure: 30"   Gusts: NA
Location:  43.2013°N, 101.679°W
Report Text: KIEN 242052Z AUTO 00000KT 10SM CLR 25/01 A3000 RMK AO2 SLP147 T02500011 56009
Loading
Personal Weather Stations






























Interactive Weather Map
Tropical Storm Tracking
New forecast layout! Learn more

10-Day Weather Forecast

Advertisements
Track Severe Weather on mobile